sensor_id;sensor_type;location;lat;lon;timestamp;P1;durP1;ratioP1;P2;durP2;ratioP2
4448;SDS011;2237;51.870;6.160;2023-05-10T00:00:55;19.08;;;9.20;;
4448;SDS011;2237;51.870;6.160;2023-05-10T00:03:21;19.25;;;9.90;;
4448;SDS011;2237;51.870;6.160;2023-05-10T00:05:48;22.83;;;10.95;;
4448;SDS011;2237;51.870;6.160;2023-05-10T00:08:14;23.35;;;10.88;;
4448;SDS011;2237;51.870;6.160;2023-05-10T00:10:41;23.13;;;11.25;;
4448;SDS011;2237;51.870;6.160;2023-05-10T00:13:07;22.98;;;11.32;;
4448;SDS011;2237;51.870;6.160;2023-05-10T00:15:33;24.50;;;11.93;;
4448;SDS011;2237;51.870;6.160;2023-05-10T00:18:00;25.33;;;11.68;;
4448;SDS011;2237;51.870;6.160;2023-05-10T00:20:27;26.52;;;12.02;;
4448;SDS011;2237;51.870;6.160;2023-05-10T00:22:53;27.92;;;12.32;;
4448;SDS011;2237;51.870;6.160;2023-05-10T00:25:20;26.40;;;11.77;;
4448;SDS011;2237;51.870;6.160;2023-05-10T00:27:47;29.35;;;13.30;;
4448;SDS011;2237;51.870;6.160;2023-05-10T00:30:14;28.08;;;13.20;;
4448;SDS011;2237;51.870;6.160;2023-05-10T00:32:41;30.80;;;13.20;;
4448;SDS011;2237;51.870;6.160;2023-05-10T00:35:08;31.73;;;14.15;;
4448;SDS011;2237;51.870;6.160;2023-05-10T00:37:34;33.72;;;15.20;;
4448;SDS011;2237;51.870;6.160;2023-05-10T00:40:00;30.77;;;13.77;;
4448;SDS011;2237;51.870;6.160;2023-05-10T00:42:27;33.53;;;14.23;;
4448;SDS011;2237;51.870;6.160;2023-05-10T00:44:53;38.30;;;15.20;;
4448;SDS011;2237;51.870;6.160;2023-05-10T00:47:19;38.50;;;15.00;;
4448;SDS011;2237;51.870;6.160;2023-05-10T00:49:46;38.15;;;15.88;;
4448;SDS011;2237;51.870;6.160;2023-05-10T00:52:12;42.65;;;15.88;;
4448;SDS011;2237;51.870;6.160;2023-05-10T00:54:39;43.28;;;16.30;;
4448;SDS011;2237;51.870;6.160;2023-05-10T00:57:05;43.38;;;17.77;;
4448;SDS011;2237;51.870;6.160;2023-05-10T00:59:32;39.25;;;16.45;;
4448;SDS011;2237;51.870;6.160;2023-05-10T01:01:58;42.72;;;16.63;;
4448;SDS011;2237;51.870;6.160;2023-05-10T01:04:25;40.17;;;16.33;;
4448;SDS011;2237;51.870;6.160;2023-05-10T01:06:52;37.88;;;15.80;;
4448;SDS011;2237;51.870;6.160;2023-05-10T01:09:22;45.42;;;17.10;;
4448;SDS011;2237;51.870;6.160;2023-05-10T01:11:51;33.95;;;15.77;;
4448;SDS011;2237;51.870;6.160;2023-05-10T01:14:18;42.03;;;16.58;;
4448;SDS011;2237;51.870;6.160;2023-05-10T01:16:46;40.03;;;15.32;;
4448;SDS011;2237;51.870;6.160;2023-05-10T01:19:19;40.40;;;15.95;;
4448;SDS011;2237;51.870;6.160;2023-05-10T01:21:49;40.97;;;15.90;;
4448;SDS011;2237;51.870;6.160;2023-05-10T01:27:29;40.65;;;16.33;;
4448;SDS011;2237;51.870;6.160;2023-05-10T01:30:08;39.55;;;15.68;;
4448;SDS011;2237;51.870;6.160;2023-05-10T01:40:51;42.95;;;17.85;;
4448;SDS011;2237;51.870;6.160;2023-05-10T01:43:22;45.70;;;18.10;;
4448;SDS011;2237;51.870;6.160;2023-05-10T01:46:07;46.33;;;17.05;;
4448;SDS011;2237;51.870;6.160;2023-05-10T01:48:40;50.50;;;18.58;;
4448;SDS011;2237;51.870;6.160;2023-05-10T01:51:13;49.80;;;18.48;;
4448;SDS011;2237;51.870;6.160;2023-05-10T01:53:42;49.08;;;17.70;;
4448;SDS011;2237;51.870;6.160;2023-05-10T01:56:10;51.72;;;18.80;;
4448;SDS011;2237;51.870;6.160;2023-05-10T01:58:39;49.30;;;18.33;;
4448;SDS011;2237;51.870;6.160;2023-05-10T02:01:09;41.25;;;16.30;;
4448;SDS011;2237;51.870;6.160;2023-05-10T02:03:36;42.75;;;17.92;;
4448;SDS011;2237;51.870;6.160;2023-05-10T02:06:04;45.08;;;17.00;;
4448;SDS011;2237;51.870;6.160;2023-05-10T02:08:33;41.92;;;16.55;;
4448;SDS011;2237;51.870;6.160;2023-05-10T02:11:02;40.95;;;16.52;;
4448;SDS011;2237;51.870;6.160;2023-05-10T02:13:30;44.40;;;16.40;;
4448;SDS011;2237;51.870;6.160;2023-05-10T02:15:59;41.88;;;16.05;;
4448;SDS011;2237;51.870;6.160;2023-05-10T02:18:27;41.63;;;16.63;;
4448;SDS011;2237;51.870;6.160;2023-05-10T02:20:54;39.55;;;14.93;;
4448;SDS011;2237;51.870;6.160;2023-05-10T02:23:21;39.85;;;16.63;;
4448;SDS011;2237;51.870;6.160;2023-05-10T02:25:49;47.88;;;16.67;;
4448;SDS011;2237;51.870;6.160;2023-05-10T02:28:17;47.95;;;16.67;;
4448;SDS011;2237;51.870;6.160;2023-05-10T02:30:44;42.30;;;16.63;;
4448;SDS011;2237;51.870;6.160;2023-05-10T02:33:13;42.55;;;15.50;;
4448;SDS011;2237;51.870;6.160;2023-05-10T02:35:40;36.72;;;15.02;;
4448;SDS011;2237;51.870;6.160;2023-05-10T02:38:07;42.53;;;16.92;;
4448;SDS011;2237;51.870;6.160;2023-05-10T02:40:35;43.72;;;17.15;;
4448;SDS011;2237;51.870;6.160;2023-05-10T02:43:03;44.97;;;17.10;;
4448;SDS011;2237;51.870;6.160;2023-05-10T02:45:31;41.10;;;16.13;;
4448;SDS011;2237;51.870;6.160;2023-05-10T02:47:58;35.97;;;15.50;;
4448;SDS011;2237;51.870;6.160;2023-05-10T02:50:27;47.45;;;18.00;;
4448;SDS011;2237;51.870;6.160;2023-05-10T02:52:59;39.53;;;15.45;;
4448;SDS011;2237;51.870;6.160;2023-05-10T02:55:30;46.17;;;16.73;;
4448;SDS011;2237;51.870;6.160;2023-05-10T02:58:01;47.50;;;17.75;;
4448;SDS011;2237;51.870;6.160;2023-05-10T03:00:28;49.13;;;17.92;;
4448;SDS011;2237;51.870;6.160;2023-05-10T03:02:55;41.83;;;15.85;;
4448;SDS011;2237;51.870;6.160;2023-05-10T03:05:21;50.75;;;18.80;;
4448;SDS011;2237;51.870;6.160;2023-05-10T03:07:49;48.40;;;16.35;;
4448;SDS011;2237;51.870;6.160;2023-05-10T03:10:17;48.13;;;18.30;;
4448;SDS011;2237;51.870;6.160;2023-05-10T03:18:23;43.58;;;17.15;;
4448;SDS011;2237;51.870;6.160;2023-05-10T03:21:02;47.60;;;19.40;;
4448;SDS011;2237;51.870;6.160;2023-05-10T03:23:35;43.20;;;18.63;;
4448;SDS011;2237;51.870;6.160;2023-05-10T03:26:08;47.40;;;19.33;;
4448;SDS011;2237;51.870;6.160;2023-05-10T03:28:34;49.08;;;19.60;;
4448;SDS011;2237;51.870;6.160;2023-05-10T03:31:02;37.28;;;14.57;;
4448;SDS011;2237;51.870;6.160;2023-05-10T03:33:31;47.90;;;19.67;;
4448;SDS011;2237;51.870;6.160;2023-05-10T03:35:58;53.10;;;20.75;;
4448;SDS011;2237;51.870;6.160;2023-05-10T03:38:24;49.53;;;19.15;;
4448;SDS011;2237;51.870;6.160;2023-05-10T03:40:52;49.50;;;19.02;;
4448;SDS011;2237;51.870;6.160;2023-05-10T03:43:18;49.70;;;20.23;;
4448;SDS011;2237;51.870;6.160;2023-05-10T03:45:45;47.35;;;19.60;;
4448;SDS011;2237;51.870;6.160;2023-05-10T03:48:11;50.92;;;20.92;;
4448;SDS011;2237;51.870;6.160;2023-05-10T03:50:39;43.88;;;19.00;;
4448;SDS011;2237;51.870;6.160;2023-05-10T03:53:06;45.15;;;18.95;;
4448;SDS011;2237;51.870;6.160;2023-05-10T03:55:32;46.60;;;19.08;;
4448;SDS011;2237;51.870;6.160;2023-05-10T03:58:00;41.78;;;17.77;;
4448;SDS011;2237;51.870;6.160;2023-05-10T04:00:26;51.75;;;18.92;;
4448;SDS011;2237;51.870;6.160;2023-05-10T04:02:53;56.50;;;19.30;;
4448;SDS011;2237;51.870;6.160;2023-05-10T04:05:19;49.80;;;20.48;;
4448;SDS011;2237;51.870;6.160;2023-05-10T04:07:46;52.50;;;19.77;;
4448;SDS011;2237;51.870;6.160;2023-05-10T04:10:13;52.30;;;20.92;;
4448;SDS011;2237;51.870;6.160;2023-05-10T04:12:39;56.63;;;20.67;;
4448;SDS011;2237;51.870;6.160;2023-05-10T04:15:06;46.03;;;17.65;;
4448;SDS011;2237;51.870;6.160;2023-05-10T04:17:33;52.03;;;20.00;;
4448;SDS011;2237;51.870;6.160;2023-05-10T04:19:59;55.28;;;20.85;;
4448;SDS011;2237;51.870;6.160;2023-05-10T04:22:26;52.45;;;20.30;;
4448;SDS011;2237;51.870;6.160;2023-05-10T04:24:53;52.80;;;20.13;;
4448;SDS011;2237;51.870;6.160;2023-05-10T04:27:20;45.72;;;17.38;;
4448;SDS011;2237;51.870;6.160;2023-05-10T04:29:46;46.38;;;16.40;;
4448;SDS011;2237;51.870;6.160;2023-05-10T04:32:12;51.05;;;18.52;;
4448;SDS011;2237;51.870;6.160;2023-05-10T04:34:39;55.20;;;19.60;;
4448;SDS011;2237;51.870;6.160;2023-05-10T04:37:05;47.92;;;20.65;;
4448;SDS011;2237;51.870;6.160;2023-05-10T04:39:32;54.92;;;18.75;;
4448;SDS011;2237;51.870;6.160;2023-05-10T04:41:59;52.03;;;20.45;;
4448;SDS011;2237;51.870;6.160;2023-05-10T04:44:25;57.22;;;19.77;;
4448;SDS011;2237;51.870;6.160;2023-05-10T04:46:51;51.83;;;19.27;;
4448;SDS011;2237;51.870;6.160;2023-05-10T04:49:18;54.72;;;19.75;;
4448;SDS011;2237;51.870;6.160;2023-05-10T04:51:44;52.25;;;19.80;;
4448;SDS011;2237;51.870;6.160;2023-05-10T04:54:10;60.40;;;21.30;;
4448;SDS011;2237;51.870;6.160;2023-05-10T04:56:37;46.83;;;18.42;;
4448;SDS011;2237;51.870;6.160;2023-05-10T04:59:03;60.70;;;20.75;;
4448;SDS011;2237;51.870;6.160;2023-05-10T05:01:29;51.65;;;19.35;;
4448;SDS011;2237;51.870;6.160;2023-05-10T05:03:56;49.25;;;18.92;;
4448;SDS011;2237;51.870;6.160;2023-05-10T05:06:22;53.22;;;19.08;;
4448;SDS011;2237;51.870;6.160;2023-05-10T05:08:50;49.55;;;17.95;;
4448;SDS011;2237;51.870;6.160;2023-05-10T05:11:17;52.03;;;19.45;;
4448;SDS011;2237;51.870;6.160;2023-05-10T05:13:43;50.53;;;18.20;;
4448;SDS011;2237;51.870;6.160;2023-05-10T05:16:10;56.40;;;20.50;;
4448;SDS011;2237;51.870;6.160;2023-05-10T05:18:39;51.13;;;18.15;;
4448;SDS011;2237;51.870;6.160;2023-05-10T05:21:18;52.35;;;19.83;;
4448;SDS011;2237;51.870;6.160;2023-05-10T05:23:46;56.03;;;20.55;;
4448;SDS011;2237;51.870;6.160;2023-05-10T05:26:13;58.45;;;20.50;;
4448;SDS011;2237;51.870;6.160;2023-05-10T05:28:40;56.53;;;20.05;;
4448;SDS011;2237;51.870;6.160;2023-05-10T05:31:07;56.15;;;19.73;;
4448;SDS011;2237;51.870;6.160;2023-05-10T05:33:34;49.63;;;19.17;;
4448;SDS011;2237;51.870;6.160;2023-05-10T05:36:01;48.30;;;17.67;;
4448;SDS011;2237;51.870;6.160;2023-05-10T05:38:28;56.33;;;20.63;;
4448;SDS011;2237;51.870;6.160;2023-05-10T05:40:54;63.03;;;21.35;;
4448;SDS011;2237;51.870;6.160;2023-05-10T05:43:21;54.95;;;21.33;;
4448;SDS011;2237;51.870;6.160;2023-05-10T05:45:47;60.40;;;20.27;;
4448;SDS011;2237;51.870;6.160;2023-05-10T05:48:14;54.15;;;20.33;;
4448;SDS011;2237;51.870;6.160;2023-05-10T05:50:40;50.47;;;20.17;;
4448;SDS011;2237;51.870;6.160;2023-05-10T05:53:06;51.95;;;19.13;;
4448;SDS011;2237;51.870;6.160;2023-05-10T05:55:34;54.80;;;21.23;;
4448;SDS011;2237;51.870;6.160;2023-05-10T05:58:00;47.08;;;18.65;;
4448;SDS011;2237;51.870;6.160;2023-05-10T06:00:26;48.45;;;19.60;;
4448;SDS011;2237;51.870;6.160;2023-05-10T06:02:53;54.83;;;20.65;;
4448;SDS011;2237;51.870;6.160;2023-05-10T06:05:19;50.42;;;20.50;;
4448;SDS011;2237;51.870;6.160;2023-05-10T06:07:46;52.20;;;17.92;;
4448;SDS011;2237;51.870;6.160;2023-05-10T06:10:13;53.63;;;20.15;;
4448;SDS011;2237;51.870;6.160;2023-05-10T06:12:40;56.08;;;20.30;;
4448;SDS011;2237;51.870;6.160;2023-05-10T06:15:06;46.17;;;19.05;;
4448;SDS011;2237;51.870;6.160;2023-05-10T06:17:33;46.95;;;19.65;;
4448;SDS011;2237;51.870;6.160;2023-05-10T06:19:59;47.38;;;20.17;;
4448;SDS011;2237;51.870;6.160;2023-05-10T06:22:26;41.60;;;18.10;;
4448;SDS011;2237;51.870;6.160;2023-05-10T06:24:52;48.67;;;19.73;;
4448;SDS011;2237;51.870;6.160;2023-05-10T06:27:18;45.83;;;19.52;;
4448;SDS011;2237;51.870;6.160;2023-05-10T06:29:44;42.47;;;18.70;;
4448;SDS011;2237;51.870;6.160;2023-05-10T06:32:11;49.22;;;19.70;;
4448;SDS011;2237;51.870;6.160;2023-05-10T06:34:37;50.70;;;19.20;;
4448;SDS011;2237;51.870;6.160;2023-05-10T06:37:03;44.60;;;18.35;;
4448;SDS011;2237;51.870;6.160;2023-05-10T06:39:30;33.17;;;16.60;;
4448;SDS011;2237;51.870;6.160;2023-05-10T06:41:56;34.88;;;15.25;;
4448;SDS011;2237;51.870;6.160;2023-05-10T06:44:23;52.17;;;17.67;;
4448;SDS011;2237;51.870;6.160;2023-05-10T06:46:49;40.38;;;17.95;;
4448;SDS011;2237;51.870;6.160;2023-05-10T06:49:16;35.97;;;15.57;;
4448;SDS011;2237;51.870;6.160;2023-05-10T06:51:42;40.25;;;17.20;;
4448;SDS011;2237;51.870;6.160;2023-05-10T06:54:08;33.65;;;13.77;;
4448;SDS011;2237;51.870;6.160;2023-05-10T06:56:35;37.38;;;15.65;;
4448;SDS011;2237;51.870;6.160;2023-05-10T06:59:01;39.13;;;15.95;;
4448;SDS011;2237;51.870;6.160;2023-05-10T07:01:28;34.45;;;16.10;;
4448;SDS011;2237;51.870;6.160;2023-05-10T07:03:55;35.92;;;16.63;;
4448;SDS011;2237;51.870;6.160;2023-05-10T07:06:21;38.45;;;16.40;;
4448;SDS011;2237;51.870;6.160;2023-05-10T07:08:58;33.65;;;15.63;;
4448;SDS011;2237;51.870;6.160;2023-05-10T07:11:25;39.83;;;16.85;;
4448;SDS011;2237;51.870;6.160;2023-05-10T07:13:52;38.55;;;15.55;;
4448;SDS011;2237;51.870;6.160;2023-05-10T07:16:19;34.67;;;16.27;;
4448;SDS011;2237;51.870;6.160;2023-05-10T07:18:45;30.90;;;12.38;;
4448;SDS011;2237;51.870;6.160;2023-05-10T07:21:12;34.17;;;14.15;;
4448;SDS011;2237;51.870;6.160;2023-05-10T07:23:38;35.38;;;15.52;;
4448;SDS011;2237;51.870;6.160;2023-05-10T07:26:04;37.85;;;16.00;;
4448;SDS011;2237;51.870;6.160;2023-05-10T07:28:31;31.67;;;13.27;;
4448;SDS011;2237;51.870;6.160;2023-05-10T07:30:57;31.70;;;12.95;;
4448;SDS011;2237;51.870;6.160;2023-05-10T07:33:23;31.70;;;14.73;;
4448;SDS011;2237;51.870;6.160;2023-05-10T07:35:50;34.58;;;14.75;;
4448;SDS011;2237;51.870;6.160;2023-05-10T07:38:16;34.60;;;15.77;;
4448;SDS011;2237;51.870;6.160;2023-05-10T07:40:43;37.00;;;15.00;;
4448;SDS011;2237;51.870;6.160;2023-05-10T07:43:10;46.15;;;16.95;;
4448;SDS011;2237;51.870;6.160;2023-05-10T07:45:36;38.33;;;16.58;;
4448;SDS011;2237;51.870;6.160;2023-05-10T07:48:02;34.40;;;14.73;;
4448;SDS011;2237;51.870;6.160;2023-05-10T07:50:29;30.08;;;12.65;;
4448;SDS011;2237;51.870;6.160;2023-05-10T07:52:55;37.35;;;15.05;;
4448;SDS011;2237;51.870;6.160;2023-05-10T07:55:22;44.15;;;16.15;;
4448;SDS011;2237;51.870;6.160;2023-05-10T07:57:48;39.53;;;15.85;;
4448;SDS011;2237;51.870;6.160;2023-05-10T08:00:19;37.95;;;14.30;;
4448;SDS011;2237;51.870;6.160;2023-05-10T08:02:46;42.28;;;15.32;;
4448;SDS011;2237;51.870;6.160;2023-05-10T08:05:13;41.60;;;16.60;;
4448;SDS011;2237;51.870;6.160;2023-05-10T08:07:41;36.03;;;15.27;;
4448;SDS011;2237;51.870;6.160;2023-05-10T08:10:08;38.97;;;15.63;;
4448;SDS011;2237;51.870;6.160;2023-05-10T08:12:37;55.53;;;15.05;;
4448;SDS011;2237;51.870;6.160;2023-05-10T08:15:04;34.90;;;14.65;;
4448;SDS011;2237;51.870;6.160;2023-05-10T08:17:31;42.53;;;15.13;;
4448;SDS011;2237;51.870;6.160;2023-05-10T08:19:57;32.63;;;13.13;;
4448;SDS011;2237;51.870;6.160;2023-05-10T08:22:24;39.65;;;16.88;;
4448;SDS011;2237;51.870;6.160;2023-05-10T08:24:50;47.15;;;17.35;;
4448;SDS011;2237;51.870;6.160;2023-05-10T08:27:16;41.03;;;16.33;;
4448;SDS011;2237;51.870;6.160;2023-05-10T08:29:42;36.78;;;15.10;;
4448;SDS011;2237;51.870;6.160;2023-05-10T08:32:15;39.90;;;16.88;;
4448;SDS011;2237;51.870;6.160;2023-05-10T08:34:42;36.45;;;16.05;;
4448;SDS011;2237;51.870;6.160;2023-05-10T08:37:08;43.65;;;16.98;;
4448;SDS011;2237;51.870;6.160;2023-05-10T08:39:37;41.58;;;18.15;;
4448;SDS011;2237;51.870;6.160;2023-05-10T08:42:04;33.78;;;15.55;;
4448;SDS011;2237;51.870;6.160;2023-05-10T08:44:35;36.50;;;15.82;;
4448;SDS011;2237;51.870;6.160;2023-05-10T08:47:04;37.65;;;16.88;;
4448;SDS011;2237;51.870;6.160;2023-05-10T08:49:33;36.40;;;14.20;;
4448;SDS011;2237;51.870;6.160;2023-05-10T08:51:59;34.67;;;14.95;;
4448;SDS011;2237;51.870;6.160;2023-05-10T08:54:30;30.20;;;14.43;;
4448;SDS011;2237;51.870;6.160;2023-05-10T08:56:58;30.05;;;13.02;;
4448;SDS011;2237;51.870;6.160;2023-05-10T08:59:24;30.80;;;14.93;;
4448;SDS011;2237;51.870;6.160;2023-05-10T09:01:50;28.83;;;14.45;;
4448;SDS011;2237;51.870;6.160;2023-05-10T09:04:20;26.45;;;11.48;;
4448;SDS011;2237;51.870;6.160;2023-05-10T09:06:47;30.88;;;13.75;;
4448;SDS011;2237;51.870;6.160;2023-05-10T09:09:14;29.75;;;12.98;;
4448;SDS011;2237;51.870;6.160;2023-05-10T09:11:42;23.88;;;11.25;;
4448;SDS011;2237;51.870;6.160;2023-05-10T09:14:09;26.77;;;12.15;;
4448;SDS011;2237;51.870;6.160;2023-05-10T09:16:36;29.58;;;14.95;;
4448;SDS011;2237;51.870;6.160;2023-05-10T09:19:02;29.90;;;13.98;;
4448;SDS011;2237;51.870;6.160;2023-05-10T09:21:29;27.63;;;12.85;;
4448;SDS011;2237;51.870;6.160;2023-05-10T09:23:57;29.75;;;12.45;;
4448;SDS011;2237;51.870;6.160;2023-05-10T09:26:28;27.98;;;13.52;;
4448;SDS011;2237;51.870;6.160;2023-05-10T09:28:56;31.45;;;14.27;;
4448;SDS011;2237;51.870;6.160;2023-05-10T09:31:23;35.65;;;16.67;;
4448;SDS011;2237;51.870;6.160;2023-05-10T09:33:53;30.88;;;13.00;;
4448;SDS011;2237;51.870;6.160;2023-05-10T09:36:19;32.38;;;14.85;;
4448;SDS011;2237;51.870;6.160;2023-05-10T09:38:50;23.35;;;9.13;;
4448;SDS011;2237;51.870;6.160;2023-05-10T09:41:19;26.88;;;11.40;;
4448;SDS011;2237;51.870;6.160;2023-05-10T09:43:47;26.83;;;11.00;;
4448;SDS011;2237;51.870;6.160;2023-05-10T09:46:14;26.10;;;11.52;;
4448;SDS011;2237;51.870;6.160;2023-05-10T09:48:42;24.70;;;11.23;;
4448;SDS011;2237;51.870;6.160;2023-05-10T09:51:18;25.83;;;10.90;;
4448;SDS011;2237;51.870;6.160;2023-05-10T09:53:48;26.23;;;11.38;;
4448;SDS011;2237;51.870;6.160;2023-05-10T09:56:35;17.63;;;7.38;;
4448;SDS011;2237;51.870;6.160;2023-05-10T09:59:03;24.70;;;11.30;;
4448;SDS011;2237;51.870;6.160;2023-05-10T10:01:30;23.77;;;11.43;;
4448;SDS011;2237;51.870;6.160;2023-05-10T10:03:57;24.60;;;10.40;;
4448;SDS011;2237;51.870;6.160;2023-05-10T10:06:24;23.58;;;9.63;;
4448;SDS011;2237;51.870;6.160;2023-05-10T10:08:55;27.08;;;11.82;;
4448;SDS011;2237;51.870;6.160;2023-05-10T10:11:22;19.80;;;9.30;;
4448;SDS011;2237;51.870;6.160;2023-05-10T10:13:49;19.98;;;9.57;;
4448;SDS011;2237;51.870;6.160;2023-05-10T10:16:16;18.23;;;7.75;;
4448;SDS011;2237;51.870;6.160;2023-05-10T10:18:42;16.15;;;7.65;;
4448;SDS011;2237;51.870;6.160;2023-05-10T10:21:09;12.82;;;6.47;;
4448;SDS011;2237;51.870;6.160;2023-05-10T10:23:36;18.88;;;7.25;;
4448;SDS011;2237;51.870;6.160;2023-05-10T10:26:02;13.18;;;7.00;;
4448;SDS011;2237;51.870;6.160;2023-05-10T10:28:43;14.60;;;7.50;;
4448;SDS011;2237;51.870;6.160;2023-05-10T10:31:27;14.68;;;7.53;;
4448;SDS011;2237;51.870;6.160;2023-05-10T10:34:06;16.15;;;7.40;;
4448;SDS011;2237;51.870;6.160;2023-05-10T10:36:40;13.23;;;6.65;;
4448;SDS011;2237;51.870;6.160;2023-05-10T10:39:10;15.43;;;7.25;;
4448;SDS011;2237;51.870;6.160;2023-05-10T10:41:40;16.00;;;7.53;;
4448;SDS011;2237;51.870;6.160;2023-05-10T10:47:08;15.70;;;5.93;;
4448;SDS011;2237;51.870;6.160;2023-05-10T10:50:03;15.40;;;7.95;;
4448;SDS011;2237;51.870;6.160;2023-05-10T10:52:32;15.15;;;7.13;;
4448;SDS011;2237;51.870;6.160;2023-05-10T11:03:04;10.93;;;5.93;;
4448;SDS011;2237;51.870;6.160;2023-05-10T11:10:36;13.07;;;5.65;;
4448;SDS011;2237;51.870;6.160;2023-05-10T11:13:04;13.32;;;5.97;;
4448;SDS011;2237;51.870;6.160;2023-05-10T11:15:35;10.57;;;5.95;;
4448;SDS011;2237;51.870;6.160;2023-05-10T11:21:01;8.35;;;4.43;;
4448;SDS011;2237;51.870;6.160;2023-05-10T11:24:12;8.88;;;4.85;;
4448;SDS011;2237;51.870;6.160;2023-05-10T11:26:32;8.27;;;4.32;;
4448;SDS011;2237;51.870;6.160;2023-05-10T11:29:00;9.48;;;4.35;;
4448;SDS011;2237;51.870;6.160;2023-05-10T11:31:28;8.38;;;4.80;;
4448;SDS011;2237;51.870;6.160;2023-05-10T11:33:55;8.90;;;4.53;;
4448;SDS011;2237;51.870;6.160;2023-05-10T11:36:25;9.68;;;4.65;;
4448;SDS011;2237;51.870;6.160;2023-05-10T11:38:54;8.02;;;4.68;;
4448;SDS011;2237;51.870;6.160;2023-05-10T11:41:22;5.68;;;3.38;;
4448;SDS011;2237;51.870;6.160;2023-05-10T11:43:50;9.60;;;5.18;;
4448;SDS011;2237;51.870;6.160;2023-05-10T11:46:18;8.93;;;4.28;;
4448;SDS011;2237;51.870;6.160;2023-05-10T11:48:50;8.48;;;4.28;;
4448;SDS011;2237;51.870;6.160;2023-05-10T11:51:22;8.85;;;4.53;;
4448;SDS011;2237;51.870;6.160;2023-05-10T11:53:50;9.00;;;5.18;;
4448;SDS011;2237;51.870;6.160;2023-05-10T11:56:19;9.13;;;4.45;;
4448;SDS011;2237;51.870;6.160;2023-05-10T11:58:54;10.77;;;4.55;;
4448;SDS011;2237;51.870;6.160;2023-05-10T12:01:22;7.55;;;3.70;;
4448;SDS011;2237;51.870;6.160;2023-05-10T12:03:50;9.55;;;5.05;;
4448;SDS011;2237;51.870;6.160;2023-05-10T12:06:18;9.35;;;4.35;;
4448;SDS011;2237;51.870;6.160;2023-05-10T12:08:47;10.88;;;4.47;;
4448;SDS011;2237;51.870;6.160;2023-05-10T12:11:15;8.68;;;4.30;;
4448;SDS011;2237;51.870;6.160;2023-05-10T12:13:43;8.60;;;4.82;;
4448;SDS011;2237;51.870;6.160;2023-05-10T12:16:13;7.70;;;4.40;;
4448;SDS011;2237;51.870;6.160;2023-05-10T12:18:45;10.68;;;4.90;;
4448;SDS011;2237;51.870;6.160;2023-05-10T12:21:14;10.23;;;5.28;;
4448;SDS011;2237;51.870;6.160;2023-05-10T12:23:41;9.88;;;4.78;;
4448;SDS011;2237;51.870;6.160;2023-05-10T12:26:10;10.13;;;5.25;;
4448;SDS011;2237;51.870;6.160;2023-05-10T12:28:37;7.13;;;3.97;;
4448;SDS011;2237;51.870;6.160;2023-05-10T12:31:05;10.00;;;4.97;;
4448;SDS011;2237;51.870;6.160;2023-05-10T12:33:39;7.40;;;3.60;;
4448;SDS011;2237;51.870;6.160;2023-05-10T12:36:13;9.55;;;5.18;;
4448;SDS011;2237;51.870;6.160;2023-05-10T12:38:42;7.78;;;4.75;;
4448;SDS011;2237;51.870;6.160;2023-05-10T12:41:14;7.82;;;3.95;;
4448;SDS011;2237;51.870;6.160;2023-05-10T12:43:42;8.13;;;4.80;;
4448;SDS011;2237;51.870;6.160;2023-05-10T12:46:09;9.85;;;5.40;;
4448;SDS011;2237;51.870;6.160;2023-05-10T12:48:40;9.23;;;4.50;;
4448;SDS011;2237;51.870;6.160;2023-05-10T12:51:08;9.43;;;4.22;;
4448;SDS011;2237;51.870;6.160;2023-05-10T12:53:37;7.85;;;4.60;;
4448;SDS011;2237;51.870;6.160;2023-05-10T12:56:11;8.07;;;4.03;;
4448;SDS011;2237;51.870;6.160;2023-05-10T12:58:38;7.57;;;4.05;;
4448;SDS011;2237;51.870;6.160;2023-05-10T13:01:04;10.73;;;4.93;;
4448;SDS011;2237;51.870;6.160;2023-05-10T13:03:31;6.18;;;3.92;;
4448;SDS011;2237;51.870;6.160;2023-05-10T13:05:58;7.63;;;3.97;;
4448;SDS011;2237;51.870;6.160;2023-05-10T13:08:25;6.93;;;4.35;;
4448;SDS011;2237;51.870;6.160;2023-05-10T13:10:51;8.50;;;4.20;;
4448;SDS011;2237;51.870;6.160;2023-05-10T13:13:17;7.65;;;4.05;;
4448;SDS011;2237;51.870;6.160;2023-05-10T13:15:44;7.38;;;3.78;;
4448;SDS011;2237;51.870;6.160;2023-05-10T13:18:10;8.18;;;3.50;;
4448;SDS011;2237;51.870;6.160;2023-05-10T13:20:37;6.85;;;3.33;;
4448;SDS011;2237;51.870;6.160;2023-05-10T13:23:04;8.88;;;4.03;;
4448;SDS011;2237;51.870;6.160;2023-05-10T13:25:30;6.78;;;3.40;;
4448;SDS011;2237;51.870;6.160;2023-05-10T13:27:57;7.97;;;3.83;;
4448;SDS011;2237;51.870;6.160;2023-05-10T13:30:24;6.47;;;3.40;;
4448;SDS011;2237;51.870;6.160;2023-05-10T13:32:50;6.28;;;3.60;;
4448;SDS011;2237;51.870;6.160;2023-05-10T13:35:17;7.10;;;3.70;;
4448;SDS011;2237;51.870;6.160;2023-05-10T13:37:43;7.70;;;4.53;;
4448;SDS011;2237;51.870;6.160;2023-05-10T13:40:10;5.80;;;3.53;;
4448;SDS011;2237;51.870;6.160;2023-05-10T13:42:37;7.68;;;3.88;;
4448;SDS011;2237;51.870;6.160;2023-05-10T13:45:04;8.18;;;4.43;;
4448;SDS011;2237;51.870;6.160;2023-05-10T13:47:31;10.50;;;4.13;;
4448;SDS011;2237;51.870;6.160;2023-05-10T13:49:57;20.42;;;5.30;;
4448;SDS011;2237;51.870;6.160;2023-05-10T13:52:24;6.78;;;3.50;;
4448;SDS011;2237;51.870;6.160;2023-05-10T13:54:51;7.55;;;4.20;;
4448;SDS011;2237;51.870;6.160;2023-05-10T13:57:21;9.95;;;4.75;;
4448;SDS011;2237;51.870;6.160;2023-05-10T13:59:48;8.02;;;4.63;;
4448;SDS011;2237;51.870;6.160;2023-05-10T14:02:14;8.98;;;5.15;;
4448;SDS011;2237;51.870;6.160;2023-05-10T14:04:41;9.48;;;5.50;;
4448;SDS011;2237;51.870;6.160;2023-05-10T14:07:08;9.55;;;5.07;;
4448;SDS011;2237;51.870;6.160;2023-05-10T14:09:34;11.20;;;5.65;;
4448;SDS011;2237;51.870;6.160;2023-05-10T14:12:00;8.98;;;4.90;;
4448;SDS011;2237;51.870;6.160;2023-05-10T14:14:28;9.20;;;4.78;;
4448;SDS011;2237;51.870;6.160;2023-05-10T14:16:55;10.80;;;5.55;;
4448;SDS011;2237;51.870;6.160;2023-05-10T14:19:21;8.75;;;5.07;;
4448;SDS011;2237;51.870;6.160;2023-05-10T14:21:48;10.00;;;5.05;;
4448;SDS011;2237;51.870;6.160;2023-05-10T14:24:14;9.43;;;4.80;;
4448;SDS011;2237;51.870;6.160;2023-05-10T14:26:41;8.80;;;5.47;;
4448;SDS011;2237;51.870;6.160;2023-05-10T14:29:07;10.10;;;5.50;;
4448;SDS011;2237;51.870;6.160;2023-05-10T14:31:37;9.65;;;5.47;;
4448;SDS011;2237;51.870;6.160;2023-05-10T14:34:03;6.57;;;4.07;;
4448;SDS011;2237;51.870;6.160;2023-05-10T14:36:30;9.23;;;5.40;;
4448;SDS011;2237;51.870;6.160;2023-05-10T14:38:56;8.27;;;5.25;;
4448;SDS011;2237;51.870;6.160;2023-05-10T14:41:22;7.40;;;4.78;;
4448;SDS011;2237;51.870;6.160;2023-05-10T14:43:49;8.20;;;4.88;;
4448;SDS011;2237;51.870;6.160;2023-05-10T14:46:15;8.57;;;5.00;;
4448;SDS011;2237;51.870;6.160;2023-05-10T14:48:42;10.02;;;5.30;;
4448;SDS011;2237;51.870;6.160;2023-05-10T14:51:08;9.93;;;5.65;;
4448;SDS011;2237;51.870;6.160;2023-05-10T14:53:35;9.85;;;5.55;;
4448;SDS011;2237;51.870;6.160;2023-05-10T14:56:01;10.88;;;6.18;;
4448;SDS011;2237;51.870;6.160;2023-05-10T14:58:31;10.52;;;7.13;;
4448;SDS011;2237;51.870;6.160;2023-05-10T15:00:59;12.52;;;6.30;;
4448;SDS011;2237;51.870;6.160;2023-05-10T15:03:26;8.85;;;5.93;;
4448;SDS011;2237;51.870;6.160;2023-05-10T15:05:53;13.45;;;8.00;;
4448;SDS011;2237;51.870;6.160;2023-05-10T15:08:19;11.60;;;6.60;;
4448;SDS011;2237;51.870;6.160;2023-05-10T15:10:46;10.25;;;6.10;;
4448;SDS011;2237;51.870;6.160;2023-05-10T15:13:13;11.65;;;7.18;;
4448;SDS011;2237;51.870;6.160;2023-05-10T15:15:40;11.93;;;6.90;;
4448;SDS011;2237;51.870;6.160;2023-05-10T15:18:06;10.75;;;6.82;;
4448;SDS011;2237;51.870;6.160;2023-05-10T15:20:33;11.45;;;7.18;;
4448;SDS011;2237;51.870;6.160;2023-05-10T15:22:59;13.20;;;7.15;;
4448;SDS011;2237;51.870;6.160;2023-05-10T15:25:25;9.60;;;6.32;;
4448;SDS011;2237;51.870;6.160;2023-05-10T15:27:52;10.35;;;7.03;;
4448;SDS011;2237;51.870;6.160;2023-05-10T15:30:18;10.45;;;6.78;;
4448;SDS011;2237;51.870;6.160;2023-05-10T15:32:45;11.18;;;7.00;;
4448;SDS011;2237;51.870;6.160;2023-05-10T15:35:11;10.25;;;6.32;;